Turpan, China
Current Conditions -  °F | °C
As of 8:30 PM on Wednesday 26 Nov 2014 (Local Time) from ZWWW Reporting Station
Haze Haze  
Wind Chill: 13°   Ceiling: Unl
Heat Index: 19°   Visibility: 1.2mi
Dew Point: 18°   Wind: 4mph
Humidity: 93%   Direction: 50°NE
Pressure: 30.3"   Gusts: NA
Location:  42.93°N, 89.2°E
Report Text: ZWWW 261230Z 05002MPS 2000 BR NSC M07/M08 Q1026 NOSIG
Loading
Personal Weather Stations






























Interactive Weather Map New forecast layout! Learn more

10-Day Weather Forecast

Advertisements
Track Severe Weather on mobile